コロンボ の空港の天気 - METARとTAF

バンダラナイケ国際空港 ( VCBI / CMB ) - スリランカ コロンボ
飛行場実況気象(Metar)
観測時間01/29 12:40 IST (01/29 07:10 UTC)
風向・風速東 4m/s
視程10km以上
天気現象
全天の4割程度の雲 雲底高度 550m
気温32℃
湿度59%
気圧1011hPa
METARVCBI 290710Z 08007KT 050V150 9999 SCT018 32/23 Q1011 NOSIG
過去の天気等 Google飛行場航空写真 Wunderground天気予報

過去48時間のMETAR

飛行場予報(TAF)
発表時間: 1/29 10:30 IST (1/29 05:00 UTC)
予報対象時間: 29日11時 IST ~ 30日17時 IST
風向・風速西 4m/s
視程10km以上
全天の4割程度の雲 雲底高度 550m
29日16時 IST ~ 29日18時 IST に徐々に
風向・風速不定 3m/s
TAF VCBI 290500Z 2906/3012 28007KT 9999 SCT018 TX33/2907Z TN23/3000Z
BECMG 2911/2913 VRB05KT